Latest Weather Observations for Maningrida Airport

IDD60801

Issued at 6:05 am CST Tuesday 2 September 2014 (issued every 30 minutes, with the page automatically refreshed every 10 minutes)

About weather observations | Map of weather stations | Latest weather observations for NT | Other Formats
Station Details ID: 014405 Name: MANINGRIDA AIRPORT Lat: -12.06 Lon: 134.23 Height: 28.1 m
Data from the previous 72 hours. | See also: Recent months at Maningrida Airport
Date/Time
CST
Temp
°C
App
Temp
°C
Dew
Point
Rel
Hum
%
Delta-T
°C
Wind Press
QNH
hPa
Press
MSL
hPa
Rain
since 9 am
mm
Dir
 
Spd
km/h
Gust
km/h
Spd
kts
Gust
kts
02/06:00am 16.0 15.9 13.8 87 1.2 S 7 11 4 6 1013.9 1013.8 0.0
02/05:30am 16.3 16.2 14.0 86 1.3 S 7 11 4 6 1013.7 - 0.0
02/05:00am 17.0 17.2 14.6 86 1.4 S 7 11 4 6 1013.7 - 0.0
02/04:30am 17.3 17.2 14.9 86 1.4 S 9 11 5 6 1013.7 - 0.0
02/04:00am 17.9 18.0 14.4 80 2.0 SSE 7 9 4 5 1013.7 - 0.0
02/03:30am 19.0 18.4 14.7 76 2.5 SE 11 11 6 6 1013.5 - 0.0
02/03:00am 20.2 19.7 14.8 71 3.2 ESE 11 15 6 8 1013.6 1013.5 0.0
02/02:30am 20.5 20.0 14.8 70 3.3 E 11 13 6 7 1013.9 - 0.0
02/02:00am 21.1 20.0 15.2 69 3.5 ESE 15 19 8 10 1014.1 - 0.0
02/01:30am 21.0 20.7 15.5 71 3.3 ESE 11 15 6 8 1014.3 - 0.0
02/01:00am 20.8 21.5 17.0 79 2.3 SE 9 13 5 7 1014.5 - 0.0
02/12:30am 20.7 22.0 18.5 87 1.4 SSE 9 11 5 6 1015.0 - 0.0
02/12:00am 20.8 22.3 18.9 89 1.2 SSE 9 11 5 6 1014.9 1014.8 0.0
 
Date/Time
CST
Temp
°C
App
Temp
°C
Dew
Point
Rel
Hum
%
Delta-T
°C
Wind Press
QNH
hPa
Press
MSL
hPa
Rain
since 9 am
mm
Dir
 
Spd
km/h
Gust
km/h
Spd
kts
Gust
kts
01/11:50pm 21.3 23.3 19.2 88 1.3 SSE 7 9 4 5 1014.8 - 0.0
01/11:31pm 22.0 24.2 19.7 87 1.5 S 7 13 4 7 1014.7 - 0.0
01/11:30pm 22.1 24.0 19.8 87 1.5 S 9 13 5 7 1014.7 - 0.0
01/11:00pm 23.4 25.3 20.5 84 1.9 ESE 11 13 6 7 1014.4 - 0.0
01/10:30pm 23.7 24.9 19.8 79 2.5 E 13 17 7 9 1014.2 - 0.0
01/10:00pm 23.8 24.6 19.1 75 3.0 E 13 20 7 11 1014.0 - 0.0
01/09:30pm 24.0 24.8 19.1 74 3.1 E 13 19 7 10 1013.8 - 0.0
01/09:00pm 23.9 24.7 19.0 74 3.1 E 13 17 7 9 1013.4 1013.3 0.0
01/08:30pm 23.7 25.2 18.8 74 3.1 E 9 13 5 7 1012.9 - 0.0
01/08:00pm 23.8 25.2 18.7 73 3.2 E 9 11 5 6 1012.3 - 0.0
01/07:30pm 24.3 25.0 18.0 68 4.0 E 11 15 6 8 1011.8 - 0.0
01/07:00pm 24.8 25.3 17.5 64 4.6 E 11 17 6 9 1011.4 - 0.0
01/06:30pm 25.7 24.9 16.0 55 5.9 ENE 15 20 8 11 1011.1 - 0.0
01/06:00pm 26.5 25.0 15.2 49 6.9 ENE 17 26 9 14 1010.9 1010.8 0.0
01/05:30pm 27.4 25.1 14.1 44 7.9 ENE 19 28 10 15 1010.7 - 0.0
01/05:00pm 28.1 24.8 11.6 36 9.5 ENE 20 32 11 17 1010.6 - 0.0
01/04:30pm 28.8 25.1 10.0 31 10.6 ENE 20 32 11 17 1010.3 - 0.0
01/04:00pm 30.0 26.4 10.5 30 11.1 ENE 20 30 11 16 1010.1 - 0.0
01/03:30pm 30.4 26.2 8.2 25 12.2 NE 20 28 11 15 1010.1 - 0.0
01/03:00pm 31.4 28.3 10.2 27 12.1 NE 17 26 9 14 1010.2 1010.1 0.0
01/02:30pm 31.3 29.0 10.6 28 11.9 NE 13 19 7 10 1010.6 - 0.0
01/02:00pm 32.4 28.2 5.8 19 14.2 ESE 17 33 9 18 1011.0 - 0.0
01/01:30pm 32.6 27.6 4.4 17 14.8 SSE 20 28 11 15 1011.6 - 0.0
01/01:00pm 32.6 27.7 5.2 18 14.5 SSE 20 39 11 21 1012.0 - 0.0
01/12:30pm 32.0 27.1 3.9 17 14.5 SSE 19 32 10 17 1012.6 - 0.0
01/12:00pm 31.6 26.3 5.2 19 13.9 SSE 22 35 12 19 1013.1 1013.0 0.0
01/11:30am 30.9 26.3 6.7 22 13.0 SE 20 28 11 15 1013.6 - 0.0
01/11:00am 30.4 26.8 8.2 25 12.2 ESE 17 30 9 16 1014.1 - 0.0
01/10:30am 29.5 27.2 9.1 28 11.3 ESE 11 20 6 11 1014.6 - 0.0
01/10:00am 27.5 27.1 14.2 44 8.0 SSE 9 13 5 7 1015.0 - 0.0
01/09:30am 25.8 26.1 16.1 55 5.9 S 9 13 5 7 1015.2 - 0.0
01/09:00am 23.8 24.7 17.5 68 3.9 S 9 13 5 7 1015.0 1014.9 0.0
01/08:30am 21.8 22.4 17.8 78 2.5 S 11 17 6 9 1014.8 - 0.0
01/08:00am 20.0 20.5 16.6 81 2.1 S 9 13 5 7 1014.6 - 0.0
01/07:30am 18.9 19.1 16.7 87 1.3 S 11 17 6 9 1014.5 - 0.0
01/07:00am 17.5 17.7 16.7 95 0.5 S 11 19 6 10 1014.0 - 0.0
01/06:30am 16.7 17.3 16.7 100 0.0 S 9 15 5 8 1013.8 - 0.0
01/06:00am 17.2 18.3 17.2 100 0.0 S 7 11 4 6 1013.6 1013.5 0.0
01/05:30am 17.5 18.4 17.5 100 0.0 SSW 9 11 5 6 1013.3 - 0.0
01/05:00am 16.7 17.6 16.7 100 0.0 S 7 9 4 5 1013.0 - 0.0
01/04:30am 17.1 18.4 17.1 100 0.0 SSW 6 7 3 4 1012.9 - 0.0
01/04:24am 17.4 18.6 17.4 100 0.0 SSW 7 13 4 7 1012.8 - 0.0
01/04:03am 17.3 19.8 17.3 100 0.0 CALM 0 0 0 0 1012.8 - 0.0
01/04:00am 17.4 20.0 17.4 100 0.0 CALM 0 0 0 0 1012.8 - 0.0
01/03:30am 17.5 20.1 17.5 100 0.0 CALM 0 0 0 0 1012.8 - 0.0
01/03:21am 17.6 20.2 17.6 100 0.0 CALM 0 0 0 0 1012.9 - 0.0
01/03:00am 18.0 20.8 18.0 100 0.0 CALM 0 0 0 0 1013.0 1012.9 0.0
01/02:30am 18.7 21.8 18.7 100 0.0 CALM 0 0 0 0 1013.2 - 0.0
01/02:00am 19.2 21.3 19.0 99 0.1 ESE 6 7 3 4 1013.4 - 0.0
01/01:58am 19.3 21.4 19.0 98 0.2 ESE 6 7 3 4 1013.4 - 0.0
01/01:30am 19.9 22.3 19.7 99 0.1 ESE 6 7 3 4 1013.6 - 0.0
01/01:22am 20.0 22.5 19.8 99 0.1 ESE 6 9 3 5 1013.6 - 0.0
01/01:00am 20.2 23.1 19.9 98 0.2 SSE 4 6 2 3 1013.6 - 0.0
01/12:47am 20.4 23.0 20.1 98 0.2 SSE 6 6 3 3 1013.5 - 0.0
01/12:43am 20.6 23.3 20.3 98 0.2 SSE 6 6 3 3 1013.5 - 0.0
01/12:30am 20.9 23.8 20.6 98 0.2 SSE 6 7 3 4 1013.5 - 0.0
01/12:25am 20.9 23.7 20.4 97 0.3 SSE 6 7 3 4 1013.5 - 0.0
01/12:00am 21.3 24.2 21.0 98 0.2 SSE 7 9 4 5 1013.6 1013.5 0.0
 
Date/Time
CST
Temp
°C
App
Temp
°C
Dew
Point
Rel
Hum
%
Delta-T
°C
Wind Press
QNH
hPa
Press
MSL
hPa
Rain
since 9 am
mm
Dir
 
Spd
km/h
Gust
km/h
Spd
kts
Gust
kts
31/11:58pm 21.3 24.2 21.0 98 0.2 SSE 7 9 4 5 1013.6 - 0.0
31/11:41pm 21.3 24.1 20.8 97 0.3 SSE 7 9 4 5 1013.6 - 0.0
31/11:30pm 21.4 24.1 20.7 96 0.5 SE 7 7 4 4 1013.5 - 0.0
31/11:00pm 21.9 24.7 20.5 92 0.9 E 6 7 3 4 1013.4 - 0.0
31/10:30pm 22.7 26.0 21.5 93 0.8 E 6 7 3 4 1013.1 - 0.0
31/10:00pm 22.9 26.0 21.4 91 1.0 E 7 9 4 5 1012.9 - 0.0
31/09:30pm 23.0 25.9 21.1 89 1.2 E 7 11 4 6 1012.9 - 0.0
31/09:00pm 23.2 25.4 20.3 84 1.9 E 9 13 5 7 1012.6 1012.5 0.0
31/08:30pm 23.3 25.1 19.5 79 2.4 ENE 9 11 5 6 1012.2 - 0.0
31/08:00pm 23.7 25.2 19.0 75 3.0 ENE 9 11 5 6 1011.8 - 0.0
31/07:30pm 24.1 25.4 18.5 71 3.5 ENE 9 11 5 6 1011.2 - 0.0
31/07:00pm 24.6 25.6 17.8 66 4.3 ENE 9 11 5 6 1010.7 - 0.0
31/06:30pm 25.3 26.0 17.0 60 5.1 ENE 9 11 5 6 1010.3 - 0.0
31/06:00pm 26.1 25.8 16.4 55 6.0 ENE 13 19 7 10 1010.1 1010.0 0.0
31/05:30pm 26.9 26.4 15.9 51 6.7 ENE 13 22 7 12 1009.9 - 0.0
31/05:00pm 27.7 26.7 15.7 48 7.4 ENE 15 20 8 11 1009.8 - 0.0
31/04:30pm 27.8 26.4 15.5 47 7.5 NE 17 26 9 14 1009.8 - 0.0
31/04:00pm 28.1 25.9 14.3 42 8.3 NE 19 35 10 19 1009.7 - 0.0
31/03:30pm 28.8 26.0 13.1 38 9.3 ENE 20 26 11 14 1009.6 - 0.0
31/03:00pm 28.7 25.7 12.6 37 9.5 ENE 20 28 11 15 1009.6 1009.5 0.0
31/02:30pm 29.3 27.1 14.3 40 9.1 ENE 19 28 10 15 1010.1 - 0.0
31/02:00pm 28.5 26.0 14.0 41 8.7 ENE 20 32 11 17 1010.4 - 0.0
31/01:30pm 28.6 26.4 14.4 41 8.6 NE 19 26 10 14 1010.8 - 0.0
31/01:00pm 29.8 27.2 13.1 36 9.9 NE 19 28 10 15 1011.1 - 0.0
31/12:30pm 31.5 26.1 4.3 18 14.1 E 22 33 12 18 1011.6 - 0.0
31/12:00pm 31.3 26.7 6.4 21 13.4 SE 20 30 11 16 1012.1 1012.0 0.0
31/11:30am 30.2 24.2 5.5 21 13.0 ESE 26 37 14 20 1012.7 - 0.0
31/11:00am 29.3 24.9 7.2 25 11.9 ESE 20 35 11 19 1013.4 - 0.0
31/10:30am 28.3 23.4 8.6 29 10.8 ESE 24 32 13 17 1013.9 - 0.0
31/10:00am 26.6 23.8 12.6 42 8.1 SE 19 30 10 16 1014.3 - 0.0
31/09:30am 24.6 24.6 15.2 55 5.7 ESE 9 13 5 7 1014.5 - 0.0
31/09:00am 22.6 22.8 14.7 61 4.7 SSE 7 9 4 5 1014.6 1014.5 0.0
31/08:30am 20.0 19.1 12.5 62 4.2 S 9 13 5 7 1014.2 - 0.0
31/08:00am 18.6 17.2 10.9 61 4.2 S 9 13 5 7 1014.0 - 0.0
31/07:30am 17.0 15.7 10.1 64 3.6 S 7 13 4 7 1014.0 - 0.0
31/07:00am 15.0 13.7 11.2 78 2.0 S 9 13 5 7 1013.4 - 0.0
31/06:30am 14.1 13.5 12.3 89 1.0 S 7 11 4 6 1013.3 - 0.0
31/06:00am 13.9 13.2 12.1 89 1.0 S 7 9 4 5 1013.0 1012.9 0.0
31/05:30am 14.6 13.8 12.8 89 1.0 S 9 13 5 7 1012.9 - 0.0
31/05:00am 15.1 14.4 13.1 88 1.1 S 9 13 5 7 1012.7 - 0.0
31/04:30am 14.9 14.1 12.8 87 1.2 S 9 11 5 6 1012.7 - 0.0
31/04:00am 15.4 14.8 12.3 82 1.7 S 7 9 4 5 1012.8 - 0.0
31/03:30am 16.7 16.3 12.5 76 2.3 S 6 7 3 4 1012.7 - 0.0
31/03:00am 18.3 17.1 12.7 70 3.1 SE 11 15 6 8 1012.7 1012.6 0.0
31/02:30am 19.8 18.4 13.3 66 3.7 ESE 13 22 7 12 1012.7 - 0.0
31/02:00am 20.2 18.6 12.7 62 4.2 E 13 17 7 9 1012.9 - 0.0
31/01:30am 19.9 19.2 14.3 70 3.2 ESE 11 15 6 8 1013.0 - 0.0
31/01:00am 19.4 19.3 14.9 75 2.6 ESE 9 11 5 6 1013.1 - 0.0
31/12:30am 20.2 19.9 15.4 74 2.8 ESE 11 13 6 7 1013.4 - 0.0
31/12:00am 20.8 20.9 16.4 76 2.7 ESE 11 13 6 7 1013.5 1013.4 0.0
 
Date/Time
CST
Temp
°C
App
Temp
°C
Dew
Point
Rel
Hum
%
Delta-T
°C
Wind Press
QNH
hPa
Press
MSL
hPa
Rain
since 9 am
mm
Dir
 
Spd
km/h
Gust
km/h
Spd
kts
Gust
kts
30/11:57pm 20.9 21.2 16.9 78 2.4 ESE 11 13 6 7 1013.5 - 0.0
30/11:30pm 19.8 21.2 17.4 86 1.5 ESE 6 7 3 4 1013.6 - 0.0
30/11:23pm 20.0 21.4 17.4 85 1.6 ESE 6 7 3 4 1013.7 - 0.0
30/11:00pm 20.6 21.7 18.0 85 1.6 ESE 9 13 5 7 1013.6 - 0.0
30/10:49pm 20.6 22.0 17.8 84 1.7 SE 7 9 4 5 1013.6 - 0.0
30/10:30pm 21.0 21.9 17.6 81 2.1 SE 9 11 5 6 1013.6 - 0.0
30/10:27pm 21.1 22.1 17.7 81 2.1 SE 9 11 5 6 1013.5 - 0.0
30/10:00pm 22.1 23.2 18.1 78 2.5 SE 9 11 5 6 1013.6 - 0.0
30/09:30pm 22.5 23.5 18.7 79 2.4 SE 11 15 6 8 1013.4 - 0.0
30/09:00pm 22.5 24.4 19.7 84 1.8 ESE 9 13 5 7 1013.2 1013.1 0.0
30/08:30pm 22.5 24.5 19.1 81 2.2 E 7 9 4 5 1012.8 - 0.0
30/08:00pm 23.0 24.8 18.7 77 2.7 E 7 9 4 5 1012.3 - 0.0
30/07:30pm 23.5 25.2 18.4 73 3.2 E 7 9 4 5 1011.9 - 0.0
30/07:00pm 24.2 25.8 18.2 69 3.8 ENE 7 11 4 6 1011.8 - 0.0
30/06:30pm 24.9 26.0 17.9 65 4.4 ENE 9 15 5 8 1011.3 - 0.0
30/06:00pm 25.9 25.3 16.7 57 5.7 ENE 15 22 8 12 1010.9 1010.8 0.0
30/05:30pm 26.8 26.0 16.1 52 6.6 ENE 15 26 8 14 1010.6 - 0.0
30/05:00pm 27.1 24.6 15.1 47 7.3 NE 22 32 12 17 1010.4 - 0.0
30/04:30pm 28.0 25.8 15.0 45 7.9 ENE 20 30 11 16 1010.4 - 0.0
30/04:00pm 28.0 23.9 12.8 39 8.9 NE 26 33 14 18 1010.3 - 0.0
30/03:30pm 28.4 24.4 11.9 36 9.6 ENE 24 35 13 19 1010.5 - 0.0
30/03:00pm 28.9 25.4 12.3 36 9.7 ENE 22 32 12 17 1010.6 1010.5 0.0
30/02:30pm 28.8 25.5 13.9 40 8.9 ENE 24 32 13 17 1011.0 - 0.0
30/02:00pm 28.5 25.5 12.4 37 9.4 ENE 20 33 11 18 1011.4 - 0.0
30/01:30pm 29.5 26.6 12.4 35 10.0 NNE 19 28 10 15 1011.7 - 0.0
30/01:00pm 32.1 27.0 4.0 17 14.6 ESE 20 30 11 16 1012.2 - 0.0
30/12:30pm 31.3 25.9 2.5 16 14.5 SE 20 35 11 19 1012.8 - 0.0
30/12:00pm 31.0 25.9 3.9 18 13.9 ESE 20 30 11 16 1013.5 1013.4 0.0
30/11:30am 30.3 26.0 6.9 23 12.6 SSE 19 28 10 15 1014.3 - 0.0
30/11:00am 29.9 26.3 8.3 26 11.9 SE 17 28 9 15 1014.8 - 0.0
30/10:30am 29.0 25.0 8.1 27 11.4 SE 19 28 10 15 1015.1 - 0.0
30/10:00am 27.4 24.9 11.0 36 9.3 ESE 15 24 8 13 1015.5 - 0.0
30/09:30am 25.4 23.9 14.2 50 6.6 SE 15 20 8 11 1015.5 - 0.0
30/09:00am 23.9 24.0 16.4 63 4.6 SSE 11 17 6 9 1015.5 1015.4 0.0
30/08:30am 21.2 21.2 16.2 73 3.0 S 11 15 6 8 1015.5 - 0.0
30/08:00am 19.1 19.3 14.6 75 2.6 S 7 11 4 6 1015.2 - 0.0
30/07:30am 17.1 17.0 13.8 81 1.9 S 7 11 4 6 1014.8 - 0.0
30/07:00am 15.6 14.8 12.9 84 1.5 S 9 11 5 6 1014.6 - 0.0
30/06:30am 15.7 14.9 13.0 84 1.5 S 9 13 5 7 1014.2 - 0.0

Other Formats:

Comma delimited format used in spreadsheet applications
http://www.bom.gov.au/fwo/IDD60801/IDD60801.95142.axf

JavaScript Object Notation format (JSON) in row-major order
http://www.bom.gov.au/fwo/IDD60801/IDD60801.95142.json